createdAt,value
2019-04-23T00:01:35.359Z,3.62
2019-04-23T00:04:05.726Z,3.70
2019-04-23T00:06:34.329Z,3.90
2019-04-23T00:09:20.377Z,3.60
2019-04-23T00:11:35.696Z,3.80
2019-04-23T00:14:05.741Z,3.58
2019-04-23T00:16:36.324Z,3.80
2019-04-23T00:18:59.360Z,3.35
2019-04-23T00:21:36.403Z,3.65
2019-04-23T00:26:37.483Z,3.55
2019-04-23T00:29:06.670Z,3.47
2019-04-23T00:31:32.889Z,3.60
2019-04-23T00:33:57.347Z,3.50
2019-04-23T00:36:32.448Z,3.60
2019-04-23T00:38:50.183Z,3.70
2019-04-23T00:41:29.665Z,3.77
2019-04-23T00:43:59.487Z,3.85
2019-04-23T00:46:25.164Z,3.58
2019-04-23T00:49:00.800Z,4.10
2019-04-23T00:51:16.815Z,3.92
2019-04-23T00:53:46.712Z,3.92
2019-04-23T00:58:47.741Z,4.03
2019-04-23T01:01:18.414Z,3.80
2019-04-23T01:03:42.208Z,4.20
2019-04-23T01:06:14.366Z,4.35
2019-04-23T01:08:55.230Z,3.92
2019-04-23T01:11:13.390Z,3.92
2019-04-23T01:16:10.008Z,4.00
2019-04-23T01:18:51.456Z,4.00
2019-04-23T01:21:03.457Z,4.25
2019-04-23T01:23:40.447Z,3.85
2019-04-23T01:26:20.925Z,3.67
2019-04-23T01:28:59.873Z,4.20
2019-04-23T01:33:53.310Z,4.10
2019-04-23T01:36:25.277Z,3.95
2019-04-23T01:38:58.514Z,4.10
2019-04-23T01:41:25.272Z,3.83
2019-04-23T01:43:46.117Z,3.90
2019-04-23T01:46:22.039Z,4.03
2019-04-23T01:48:46.889Z,4.30
2019-04-23T01:51:08.209Z,4.05
2019-04-23T01:53:38.665Z,4.33
2019-04-23T01:56:14.416Z,4.28
2019-04-23T02:01:11.576Z,4.00
2019-04-23T02:03:41.141Z,4.62
2019-04-23T02:06:14.826Z,4.22
2019-04-23T02:08:40.263Z,3.90
2019-04-23T02:11:10.358Z,3.95
2019-04-23T02:13:38.327Z,4.00
2019-04-23T02:16:05.018Z,3.62
2019-04-23T02:18:36.055Z,4.30
2019-04-23T02:21:07.856Z,4.42
2019-04-23T02:23:35.881Z,3.92
2019-04-23T02:26:02.975Z,4.40
2019-04-23T02:28:44.639Z,4.00
2019-04-23T02:36:07.681Z,4.15
2019-04-23T02:41:08.548Z,4.10
2019-04-23T02:43:29.825Z,4.20
2019-04-23T02:46:05.431Z,3.85
2019-04-23T02:48:30.743Z,3.90
2019-04-23T02:50:57.375Z,4.33
2019-04-23T02:56:24.242Z,4.37
2019-04-23T03:05:56.867Z,4.20
2019-04-23T03:08:26.755Z,4.30
2019-04-23T03:10:59.882Z,4.70
2019-04-23T03:18:56.554Z,4.03
2019-04-23T03:21:26.187Z,4.80
2019-04-23T03:24:15.066Z,3.72
2019-04-23T03:34:30.247Z,5.05
2019-04-23T03:42:09.851Z,5.33
2019-04-23T03:46:16.216Z,4.47
2019-04-23T03:48:41.321Z,4.70
2019-04-23T03:51:03.355Z,4.80
2019-04-23T03:53:42.849Z,4.92
2019-04-23T04:01:07.767Z,4.33
2019-04-23T04:04:17.012Z,4.78
2019-04-23T04:06:11.527Z,4.70
2019-04-23T04:08:25.919Z,4.67
2019-04-23T04:11:02.835Z,4.83
2019-04-23T04:16:00.844Z,4.87
2019-04-23T04:21:02.850Z,4.60
2019-04-23T04:23:37.743Z,4.85
2019-04-23T04:30:49.454Z,5.12
2019-04-23T04:35:58.323Z,4.90
2019-04-23T04:40:57.254Z,4.97
2019-04-23T04:43:32.137Z,4.75
2019-04-23T04:46:04.815Z,4.75
2019-04-23T04:48:19.741Z,5.00
2019-04-23T04:50:53.004Z,4.90
2019-04-23T04:53:35.757Z,5.00
2019-04-23T04:58:21.177Z,5.10
2019-04-23T05:06:04.950Z,5.15
2019-04-23T05:08:20.829Z,5.47
2019-04-23T05:11:05.637Z,4.85
2019-04-23T05:15:45.129Z,5.03
2019-04-23T05:20:52.943Z,5.30
2019-04-23T05:23:22.959Z,4.72
2019-04-23T05:25:47.289Z,5.03
2019-04-23T05:28:36.652Z,5.22
2019-04-23T05:31:02.332Z,4.97
2019-04-23T05:33:18.535Z,5.80
2019-04-23T05:43:12.393Z,5.42
2019-04-23T05:45:42.951Z,5.33
2019-04-23T05:48:13.239Z,5.12
2019-04-23T05:58:08.567Z,5.47
2019-04-23T06:03:12.002Z,6.03
2019-04-23T06:05:38.739Z,5.92
2019-04-23T06:08:12.076Z,6.08
2019-04-23T06:10:40.686Z,6.25
2019-04-23T06:13:08.045Z,6.53
2019-04-23T06:18:08.985Z,6.62
2019-04-23T06:20:35.254Z,5.78
2019-04-23T06:23:05.745Z,6.28
2019-04-23T06:25:49.471Z,5.30
2019-04-23T06:28:05.981Z,5.83
2019-04-23T06:30:42.194Z,5.90
2019-04-23T06:33:07.678Z,5.60
2019-04-23T06:35:34.057Z,6.15
2019-04-23T06:38:26.148Z,6.05
2019-04-23T06:40:33.871Z,6.10
2019-04-23T06:43:04.685Z,6.10
2019-04-23T06:45:33.859Z,6.23
2019-04-23T06:48:11.902Z,6.30
2019-04-23T06:50:35.422Z,6.50
2019-04-23T06:52:54.472Z,6.55
2019-04-23T06:58:08.386Z,6.28
2019-04-23T07:00:34.263Z,6.30
2019-04-23T07:03:08.424Z,6.53
2019-04-23T07:06:06.976Z,6.80
2019-04-23T07:08:34.547Z,6.50
2019-04-23T07:11:02.409Z,6.30
2019-04-23T07:13:29.625Z,6.12
2019-04-23T07:15:53.709Z,6.90
2019-04-23T07:18:18.141Z,6.80
2019-04-23T07:20:50.929Z,6.83
2019-04-23T07:23:25.489Z,6.17
2019-04-23T07:25:48.457Z,6.97
2019-04-23T07:28:18.009Z,6.30
2019-04-23T07:30:55.995Z,6.45
2019-04-23T07:33:19.171Z,6.58
2019-04-23T07:35:45.269Z,6.40
2019-04-23T07:38:44.254Z,6.25
2019-04-23T07:41:09.725Z,7.15
2019-04-23T07:43:41.063Z,6.53
2019-04-23T07:46:29.706Z,6.70
2019-04-23T07:48:47.700Z,7.10
2019-04-23T07:51:22.793Z,6.33
2019-04-23T07:53:53.561Z,6.97
2019-04-23T07:56:19.374Z,6.15
2019-04-23T07:58:39.388Z,6.85
2019-04-23T08:01:14.200Z,6.42
2019-04-23T08:03:43.929Z,6.35
2019-04-23T08:08:36.462Z,6.42
2019-04-23T08:11:40.386Z,7.20
2019-04-23T08:13:47.356Z,7.03
2019-04-23T08:16:24.707Z,7.12
2019-04-23T08:18:49.792Z,6.85
2019-04-23T08:21:25.774Z,6.30
2019-04-23T08:26:34.353Z,6.00
2019-04-23T08:31:33.639Z,6.78
2019-04-23T08:34:05.773Z,6.55
2019-04-23T08:36:27.813Z,6.40
2019-04-23T08:38:50.893Z,6.80
2019-04-23T08:44:21.454Z,7.28
2019-04-23T08:47:50.754Z,6.40
2019-04-23T08:49:22.224Z,6.40
2019-04-23T08:54:29.766Z,5.70
2019-04-23T08:56:48.967Z,5.53
2019-04-23T08:59:17.427Z,6.00
2019-04-23T09:01:59.440Z,6.67
2019-04-23T09:04:09.033Z,5.55
2019-04-23T09:06:35.094Z,5.87
2019-04-23T09:09:16.149Z,6.80
2019-04-23T09:11:45.999Z,6.33
2019-04-23T09:14:08.833Z,6.00
2019-04-23T09:16:37.804Z,6.30
2019-04-23T09:19:08.892Z,6.37
2019-04-23T09:21:37.409Z,6.67
2019-04-23T09:24:07.283Z,6.05
2019-04-23T09:26:33.184Z,6.37
2019-04-23T09:34:07.529Z,6.25
2019-04-23T09:37:00.313Z,7.80
2019-04-23T09:39:34.801Z,6.78
2019-04-23T09:42:24.603Z,6.83
2019-04-23T09:47:51.859Z,6.10
2019-04-23T09:50:15.534Z,6.55
2019-04-23T09:52:50.602Z,5.75
2019-04-23T09:55:24.609Z,6.65
2019-04-23T09:57:44.672Z,6.20
2019-04-23T10:00:23.067Z,6.80
2019-04-23T10:02:29.143Z,6.28
2019-04-23T10:04:56.893Z,7.20
2019-04-23T10:07:25.175Z,6.17
2019-04-23T10:09:40.622Z,6.50
2019-04-23T10:12:09.299Z,6.60
2019-04-23T10:14:36.708Z,6.90
2019-04-23T10:17:04.274Z,6.40
2019-04-23T10:19:32.820Z,6.53
2019-04-23T10:21:59.924Z,6.78
2019-04-23T10:24:27.951Z,6.35
2019-04-23T10:26:55.814Z,6.00
2019-04-23T10:29:25.751Z,6.25
2019-04-23T10:31:53.660Z,6.30
2019-04-23T10:34:21.186Z,6.40
2019-04-23T10:36:49.481Z,6.65
2019-04-23T10:39:25.595Z,6.47
2019-04-23T10:41:54.412Z,7.35
2019-04-23T10:44:23.520Z,6.80
2019-04-23T10:47:17.761Z,7.05
2019-04-23T10:49:59.754Z,6.58
2019-04-23T10:52:28.097Z,6.20
2019-04-23T10:57:23.180Z,6.00
2019-04-23T10:59:50.360Z,6.28
2019-04-23T11:02:39.146Z,6.83
2019-04-23T11:09:55.693Z,7.35
2019-04-23T11:15:11.265Z,5.92
2019-04-23T11:17:33.144Z,6.60
2019-04-23T11:20:07.718Z,6.40
2019-04-23T11:25:20.403Z,6.30
2019-04-23T11:27:27.986Z,6.30
2019-04-23T11:30:03.970Z,6.22
2019-04-23T11:32:41.215Z,6.15
2019-04-23T11:37:23.146Z,6.08
2019-04-23T11:39:49.565Z,6.47
2019-04-23T11:44:45.881Z,6.33
2019-04-23T11:47:42.176Z,6.35
2019-04-23T11:52:17.898Z,6.45
2019-04-23T11:54:38.991Z,6.22
2019-04-23T12:00:06.147Z,6.60
2019-04-23T12:02:05.387Z,6.55
2019-04-23T12:04:57.419Z,6.35
2019-04-23T12:07:32.856Z,6.78
2019-04-23T12:10:14.428Z,6.75
2019-04-23T12:15:13.295Z,7.15
2019-04-23T12:20:01.397Z,7.17
2019-04-23T12:22:29.814Z,6.67
2019-04-23T12:27:30.088Z,6.62
2019-04-23T12:32:48.070Z,10.05
2019-04-23T12:35:16.209Z,9.00
2019-04-23T12:37:36.476Z,8.73
2019-04-23T12:45:16.827Z,7.05
2019-04-23T12:50:18.991Z,6.85
2019-04-23T12:52:35.905Z,5.70
2019-04-23T12:55:06.946Z,6.05
2019-04-23T12:57:35.580Z,6.40
2019-04-23T12:59:59.311Z,6.17
2019-04-23T13:02:40.274Z,6.10
2019-04-23T13:07:26.385Z,6.75
2019-04-23T13:10:01.507Z,5.72
2019-04-23T13:12:38.190Z,5.67
2019-04-23T13:15:03.650Z,6.53
2019-04-23T13:20:00.680Z,5.70
2019-04-23T13:22:31.559Z,5.60
2019-04-23T13:24:54.075Z,6.17
2019-04-23T13:27:30.688Z,5.83
2019-04-23T13:32:21.607Z,5.47
2019-04-23T13:34:58.869Z,5.25
2019-04-23T13:37:33.639Z,5.37
2019-04-23T13:39:48.789Z,5.58
2019-04-23T13:42:22.769Z,5.58
2019-04-23T13:44:49.494Z,5.05
2019-04-23T13:47:31.587Z,4.72
2019-04-23T13:49:54.704Z,4.90
2019-04-23T13:52:43.215Z,4.95
2019-04-23T13:55:04.376Z,5.20
2019-04-23T14:02:17.523Z,8.08
2019-04-23T14:05:10.448Z,6.00
2019-04-23T14:07:34.659Z,6.00
2019-04-23T14:10:14.852Z,5.75
2019-04-23T14:12:23.969Z,5.35
2019-04-23T14:15:03.719Z,6.00
2019-04-23T14:17:35.698Z,5.83
2019-04-23T14:19:53.481Z,5.40
2019-04-23T14:25:08.059Z,5.70
2019-04-23T14:27:26.873Z,5.08
2019-04-23T14:29:56.501Z,5.42
2019-04-23T14:32:22.451Z,5.20
2019-04-23T14:35:04.614Z,5.15
2019-04-23T14:37:22.148Z,5.20
2019-04-23T14:39:45.515Z,5.37
2019-04-23T14:44:56.144Z,5.53
2019-04-23T14:47:23.620Z,5.22
2019-04-23T14:50:12.051Z,5.75
2019-04-23T14:52:21.682Z,5.15
2019-04-23T14:55:25.286Z,5.22
2019-04-23T14:59:48.130Z,5.22
2019-04-23T15:04:47.887Z,5.35
2019-04-23T15:07:18.856Z,5.53
2019-04-23T15:12:16.003Z,5.15
2019-04-23T15:14:56.197Z,4.83
2019-04-23T15:17:12.629Z,4.42
2019-04-23T15:24:52.397Z,5.87
2019-04-23T15:26:58.871Z,5.28
2019-04-23T15:28:00.813Z,5.80
2019-04-23T15:29:33.663Z,6.30
2019-04-23T15:34:45.429Z,5.72
2019-04-23T15:37:20.426Z,4.87
2019-04-23T15:42:26.600Z,5.37
2019-04-23T15:44:36.099Z,5.33
2019-04-23T15:47:10.239Z,5.25
2019-04-23T15:49:37.567Z,5.33
2019-04-23T15:52:06.750Z,5.33
2019-04-23T15:57:05.583Z,5.20
2019-04-23T15:59:38.689Z,4.75
2019-04-23T16:01:41.934Z,5.10
2019-04-23T16:04:03.299Z,4.50
2019-04-23T16:06:36.883Z,5.70
2019-04-23T16:09:21.341Z,5.73
2019-04-23T16:11:51.784Z,5.28
2019-04-23T16:14:31.297Z,4.65
2019-04-23T16:19:59.684Z,5.25
2019-04-23T16:24:25.199Z,4.70
2019-04-23T16:27:07.487Z,5.22
2019-04-23T16:29:48.725Z,5.70
2019-04-23T16:32:08.537Z,5.53
2019-04-23T16:34:34.239Z,22.25
2019-04-23T16:36:59.471Z,9.98
2019-04-23T16:39:30.754Z,6.80
2019-04-23T16:44:39.351Z,6.72
2019-04-23T16:47:04.563Z,6.72
2019-04-23T16:52:01.378Z,5.90
2019-04-23T16:54:36.879Z,5.20
2019-04-23T16:59:24.569Z,6.22
2019-04-23T17:02:03.547Z,6.00
2019-04-23T17:04:34.541Z,6.53
2019-04-23T17:06:57.556Z,6.10
2019-04-23T17:09:28.362Z,5.53
2019-04-23T17:12:07.679Z,5.40
2019-04-23T17:14:23.293Z,5.85
2019-04-23T17:16:59.786Z,6.03
2019-04-23T17:19:24.177Z,6.62
2019-04-23T17:21:53.405Z,6.85
2019-04-23T17:27:15.187Z,5.65
2019-04-23T17:29:26.911Z,5.87
2019-04-23T17:31:53.768Z,6.30
2019-04-23T17:34:24.074Z,6.33
2019-04-23T17:44:42.432Z,5.90
2019-04-23T17:47:14.020Z,6.20
2019-04-23T17:49:48.232Z,6.22
2019-04-23T17:52:14.773Z,7.28
2019-04-23T17:54:43.366Z,6.78
2019-04-23T17:57:15.004Z,6.53
2019-04-23T18:00:08.694Z,5.97
2019-04-23T18:07:32.225Z,6.65
2019-04-23T18:09:58.342Z,6.80
2019-04-23T18:12:31.036Z,6.90
2019-04-23T18:14:47.151Z,6.62
2019-04-23T18:17:24.266Z,6.67
2019-04-23T18:19:54.195Z,6.67
2019-04-23T18:22:22.233Z,7.00
2019-04-23T18:25:09.166Z,7.20
2019-04-23T18:27:50.707Z,7.58
2019-04-23T18:37:56.464Z,7.20
2019-04-23T18:40:28.728Z,7.40
2019-04-23T18:43:07.465Z,6.58
2019-04-23T18:45:31.972Z,6.50
2019-04-23T18:48:11.440Z,6.65
2019-04-23T18:50:29.383Z,7.10
2019-04-23T18:52:58.436Z,7.05
2019-04-23T18:55:37.042Z,7.65
2019-04-23T18:57:55.285Z,7.60
2019-04-23T19:00:24.067Z,6.15
2019-04-23T19:08:01.474Z,6.97
2019-04-23T19:13:09.660Z,6.72
2019-04-23T19:15:43.449Z,7.33
2019-04-23T19:18:00.401Z,7.55
2019-04-23T19:23:08.235Z,7.08
2019-04-23T19:25:31.881Z,6.87
2019-04-23T19:28:26.742Z,7.62
2019-04-23T19:33:32.801Z,7.80
2019-04-23T19:36:01.528Z,7.20
2019-04-23T19:40:49.300Z,7.30
2019-04-23T19:43:05.775Z,6.55
2019-04-23T19:45:49.759Z,7.00
2019-04-23T19:48:08.397Z,6.80
2019-04-23T19:50:48.978Z,6.67
2019-04-23T19:53:25.993Z,7.53
2019-04-23T19:55:49.822Z,6.92
2019-04-23T19:58:15.710Z,7.03
2019-04-23T20:00:55.290Z,6.83
2019-04-23T20:03:17.103Z,6.62
2019-04-23T20:05:41.070Z,6.47
2019-04-23T20:08:13.302Z,6.80
2019-04-23T20:10:39.564Z,7.85
2019-04-23T20:13:06.294Z,6.87
2019-04-23T20:15:53.552Z,6.67
2019-04-23T20:18:00.935Z,6.42
2019-04-23T20:20:42.162Z,7.47
2019-04-23T20:23:13.342Z,7.03
2019-04-23T20:26:02.728Z,6.87
2019-04-23T20:28:27.392Z,7.15
2019-04-23T20:31:16.297Z,7.45
2019-04-23T20:36:07.047Z,7.30
2019-04-23T20:41:03.465Z,7.05
2019-04-23T20:43:32.461Z,6.55
2019-04-23T20:45:58.949Z,7.20
2019-04-23T20:48:37.192Z,7.03
2019-04-23T20:50:51.912Z,7.47
2019-04-23T20:53:28.837Z,7.20
2019-04-23T20:56:01.616Z,8.28
2019-04-23T20:58:20.940Z,7.22
2019-04-23T21:01:18.882Z,7.72
2019-04-23T21:06:10.404Z,7.33
2019-04-23T21:08:52.362Z,7.67
2019-04-23T21:11:01.444Z,7.17
2019-04-23T21:13:51.399Z,7.25
2019-04-23T21:15:58.345Z,7.25
2019-04-23T21:20:56.297Z,7.90
2019-04-23T21:25:52.515Z,7.58
2019-04-23T21:28:40.043Z,7.80
2019-04-23T21:31:08.701Z,7.70
2019-04-23T21:33:50.786Z,7.65
2019-04-23T21:38:50.537Z,7.45
2019-04-23T21:43:59.221Z,7.87
2019-04-23T21:46:16.009Z,6.95
2019-04-23T21:48:57.916Z,7.72
2019-04-23T21:51:09.495Z,8.18
2019-04-23T21:53:40.600Z,8.05
2019-04-23T21:58:49.120Z,7.87
2019-04-23T22:04:03.896Z,7.30
2019-04-23T22:06:25.524Z,8.33
2019-04-23T22:08:52.508Z,8.23
2019-04-23T22:11:32.726Z,8.25
2019-04-23T22:16:14.564Z,8.25
2019-04-23T22:18:58.593Z,7.58
2019-04-23T22:21:15.689Z,7.85
2019-04-23T22:23:52.581Z,8.03
2019-04-23T22:26:13.460Z,8.18
2019-04-23T22:28:52.781Z,8.28
2019-04-23T22:31:15.174Z,7.92
2019-04-23T22:33:46.555Z,8.25
2019-04-23T22:36:09.618Z,8.08
2019-04-23T22:38:39.496Z,8.48
2019-04-23T22:41:01.902Z,8.40
2019-04-23T22:43:43.305Z,7.50
2019-04-23T22:48:34.207Z,8.00
2019-04-23T22:51:22.870Z,8.65
2019-04-23T22:53:25.498Z,8.90
2019-04-23T22:58:32.482Z,8.78
2019-04-23T23:01:14.696Z,9.03
2019-04-23T23:03:43.769Z,8.95
2019-04-23T23:08:52.209Z,8.23
2019-04-23T23:11:05.777Z,8.25
2019-04-23T23:13:47.329Z,8.70
2019-04-23T23:16:16.434Z,8.70
2019-04-23T23:18:52.393Z,8.03
2019-04-23T23:26:00.767Z,8.75
2019-04-23T23:28:31.378Z,9.05
2019-04-23T23:31:04.045Z,9.10
2019-04-23T23:33:23.067Z,9.05
2019-04-23T23:36:00.104Z,8.43
2019-04-23T23:38:41.798Z,8.70
2019-04-23T23:40:57.192Z,8.25
2019-04-23T23:45:55.377Z,8.78
2019-04-23T23:48:18.676Z,8.25
2019-04-23T23:50:54.704Z,9.10
2019-04-23T23:53:32.223Z,8.75
2019-04-23T23:55:48.733Z,8.75
2019-04-23T23:58:23.532Z,7.95
